sensor_id;sensor_type;location;lat;lon;timestamp;P1;durP1;ratioP1;P2;durP2;ratioP2
20824;SDS011;10573;50.936;6.978;2023-12-29T00:01:20;3.80;;;1.13;;
20824;SDS011;10573;50.936;6.978;2023-12-29T00:03:46;4.13;;;0.98;;
20824;SDS011;10573;50.936;6.978;2023-12-29T00:06:11;2.85;;;0.80;;
20824;SDS011;10573;50.936;6.978;2023-12-29T00:08:37;2.77;;;1.20;;
20824;SDS011;10573;50.936;6.978;2023-12-29T00:11:03;4.63;;;1.17;;
20824;SDS011;10573;50.936;6.978;2023-12-29T00:13:28;2.63;;;0.95;;
20824;SDS011;10573;50.936;6.978;2023-12-29T00:15:55;4.65;;;0.93;;
20824;SDS011;10573;50.936;6.978;2023-12-29T00:18:21;4.75;;;1.10;;
20824;SDS011;10573;50.936;6.978;2023-12-29T00:20:47;3.67;;;1.17;;
20824;SDS011;10573;50.936;6.978;2023-12-29T00:23:15;4.50;;;1.00;;
20824;SDS011;10573;50.936;6.978;2023-12-29T00:25:40;2.80;;;0.98;;
20824;SDS011;10573;50.936;6.978;2023-12-29T00:28:06;3.40;;;1.00;;
20824;SDS011;10573;50.936;6.978;2023-12-29T00:30:32;4.50;;;1.20;;
20824;SDS011;10573;50.936;6.978;2023-12-29T00:32:58;4.28;;;1.20;;
20824;SDS011;10573;50.936;6.978;2023-12-29T00:35:23;3.60;;;1.07;;
20824;SDS011;10573;50.936;6.978;2023-12-29T00:37:49;2.80;;;0.90;;
20824;SDS011;10573;50.936;6.978;2023-12-29T00:40:16;3.28;;;1.08;;
20824;SDS011;10573;50.936;6.978;2023-12-29T00:42:47;2.60;;;0.97;;
20824;SDS011;10573;50.936;6.978;2023-12-29T00:45:13;4.10;;;1.27;;
20824;SDS011;10573;50.936;6.978;2023-12-29T00:47:38;4.47;;;1.10;;
20824;SDS011;10573;50.936;6.978;2023-12-29T00:50:04;3.35;;;1.05;;
20824;SDS011;10573;50.936;6.978;2023-12-29T00:52:30;4.75;;;1.52;;
20824;SDS011;10573;50.936;6.978;2023-12-29T00:54:55;3.73;;;1.23;;
20824;SDS011;10573;50.936;6.978;2023-12-29T00:57:20;3.50;;;1.20;;
20824;SDS011;10573;50.936;6.978;2023-12-29T00:59:46;5.60;;;1.30;;
20824;SDS011;10573;50.936;6.978;2023-12-29T01:02:12;3.03;;;1.40;;
20824;SDS011;10573;50.936;6.978;2023-12-29T01:04:38;6.03;;;1.60;;
20824;SDS011;10573;50.936;6.978;2023-12-29T01:07:06;4.43;;;1.35;;
20824;SDS011;10573;50.936;6.978;2023-12-29T01:09:31;4.93;;;1.38;;
20824;SDS011;10573;50.936;6.978;2023-12-29T01:11:57;4.60;;;1.13;;
20824;SDS011;10573;50.936;6.978;2023-12-29T01:14:22;6.22;;;1.25;;
20824;SDS011;10573;50.936;6.978;2023-12-29T01:16:48;4.70;;;1.50;;
20824;SDS011;10573;50.936;6.978;2023-12-29T01:19:13;4.97;;;1.30;;
20824;SDS011;10573;50.936;6.978;2023-12-29T01:21:38;4.13;;;1.33;;
20824;SDS011;10573;50.936;6.978;2023-12-29T01:24:04;6.22;;;1.40;;
20824;SDS011;10573;50.936;6.978;2023-12-29T01:26:31;3.50;;;1.48;;
20824;SDS011;10573;50.936;6.978;2023-12-29T01:28:56;4.70;;;1.30;;
20824;SDS011;10573;50.936;6.978;2023-12-29T01:31:22;6.87;;;1.40;;
20824;SDS011;10573;50.936;6.978;2023-12-29T01:33:47;5.17;;;1.57;;
20824;SDS011;10573;50.936;6.978;2023-12-29T01:36:19;5.57;;;1.77;;
20824;SDS011;10573;50.936;6.978;2023-12-29T01:38:44;4.35;;;1.48;;
20824;SDS011;10573;50.936;6.978;2023-12-29T01:41:10;4.60;;;1.33;;
20824;SDS011;10573;50.936;6.978;2023-12-29T01:43:35;5.17;;;1.43;;
20824;SDS011;10573;50.936;6.978;2023-12-29T01:46:00;4.65;;;1.40;;
20824;SDS011;10573;50.936;6.978;2023-12-29T01:48:26;4.87;;;1.40;;
20824;SDS011;10573;50.936;6.978;2023-12-29T01:50:52;5.90;;;1.50;;
20824;SDS011;10573;50.936;6.978;2023-12-29T01:53:18;3.75;;;1.30;;
20824;SDS011;10573;50.936;6.978;2023-12-29T01:55:44;4.95;;;1.55;;
20824;SDS011;10573;50.936;6.978;2023-12-29T01:58:10;5.78;;;1.45;;
20824;SDS011;10573;50.936;6.978;2023-12-29T02:00:36;4.37;;;1.30;;
20824;SDS011;10573;50.936;6.978;2023-12-29T02:03:01;6.07;;;1.45;;
20824;SDS011;10573;50.936;6.978;2023-12-29T02:05:27;6.40;;;1.80;;
20824;SDS011;10573;50.936;6.978;2023-12-29T02:07:56;6.27;;;1.60;;
20824;SDS011;10573;50.936;6.978;2023-12-29T02:10:21;6.30;;;1.50;;
20824;SDS011;10573;50.936;6.978;2023-12-29T02:12:48;7.25;;;1.55;;
20824;SDS011;10573;50.936;6.978;2023-12-29T02:15:19;4.97;;;1.60;;
20824;SDS011;10573;50.936;6.978;2023-12-29T02:17:45;5.57;;;1.50;;
20824;SDS011;10573;50.936;6.978;2023-12-29T02:20:15;7.03;;;1.80;;
20824;SDS011;10573;50.936;6.978;2023-12-29T02:22:41;6.93;;;1.40;;
20824;SDS011;10573;50.936;6.978;2023-12-29T02:25:07;4.33;;;1.30;;
20824;SDS011;10573;50.936;6.978;2023-12-29T02:30:28;4.10;;;1.40;;
20824;SDS011;10573;50.936;6.978;2023-12-29T02:33:00;7.28;;;1.40;;
20824;SDS011;10573;50.936;6.978;2023-12-29T02:35:32;5.60;;;1.40;;
20824;SDS011;10573;50.936;6.978;2023-12-29T02:38:01;5.57;;;1.42;;
20824;SDS011;10573;50.936;6.978;2023-12-29T02:40:27;8.48;;;1.67;;
20824;SDS011;10573;50.936;6.978;2023-12-29T02:42:53;5.35;;;1.30;;
20824;SDS011;10573;50.936;6.978;2023-12-29T02:45:18;6.37;;;1.50;;
20824;SDS011;10573;50.936;6.978;2023-12-29T02:47:44;5.77;;;1.50;;
20824;SDS011;10573;50.936;6.978;2023-12-29T02:50:10;6.38;;;1.52;;
20824;SDS011;10573;50.936;6.978;2023-12-29T02:52:36;3.70;;;1.10;;
20824;SDS011;10573;50.936;6.978;2023-12-29T02:55:02;5.18;;;1.70;;
20824;SDS011;10573;50.936;6.978;2023-12-29T02:57:28;6.35;;;1.50;;
20824;SDS011;10573;50.936;6.978;2023-12-29T02:59:54;5.65;;;1.70;;
20824;SDS011;10573;50.936;6.978;2023-12-29T03:02:20;6.03;;;1.50;;
20824;SDS011;10573;50.936;6.978;2023-12-29T03:04:45;5.50;;;1.30;;
20824;SDS011;10573;50.936;6.978;2023-12-29T03:07:11;5.80;;;1.73;;
20824;SDS011;10573;50.936;6.978;2023-12-29T03:09:37;6.95;;;1.50;;
20824;SDS011;10573;50.936;6.978;2023-12-29T03:12:02;7.63;;;1.70;;
20824;SDS011;10573;50.936;6.978;2023-12-29T03:14:28;6.67;;;1.73;;
20824;SDS011;10573;50.936;6.978;2023-12-29T03:16:54;5.63;;;1.67;;
20824;SDS011;10573;50.936;6.978;2023-12-29T03:19:19;9.00;;;1.60;;
20824;SDS011;10573;50.936;6.978;2023-12-29T03:21:45;6.13;;;1.33;;
20824;SDS011;10573;50.936;6.978;2023-12-29T03:24:10;5.03;;;1.27;;
20824;SDS011;10573;50.936;6.978;2023-12-29T03:26:35;5.97;;;1.20;;
20824;SDS011;10573;50.936;6.978;2023-12-29T03:29:01;7.30;;;1.70;;
20824;SDS011;10573;50.936;6.978;2023-12-29T03:31:26;7.73;;;1.43;;
20824;SDS011;10573;50.936;6.978;2023-12-29T03:33:52;5.07;;;1.10;;
20824;SDS011;10573;50.936;6.978;2023-12-29T03:36:17;4.18;;;1.30;;
20824;SDS011;10573;50.936;6.978;2023-12-29T03:38:43;4.50;;;1.20;;
20824;SDS011;10573;50.936;6.978;2023-12-29T03:41:08;6.30;;;1.70;;
20824;SDS011;10573;50.936;6.978;2023-12-29T03:43:34;3.90;;;1.20;;
20824;SDS011;10573;50.936;6.978;2023-12-29T03:45:59;5.17;;;1.20;;
20824;SDS011;10573;50.936;6.978;2023-12-29T03:48:24;4.27;;;1.10;;
20824;SDS011;10573;50.936;6.978;2023-12-29T03:50:50;7.40;;;1.60;;
20824;SDS011;10573;50.936;6.978;2023-12-29T03:53:15;3.83;;;1.07;;
20824;SDS011;10573;50.936;6.978;2023-12-29T03:55:41;3.93;;;1.23;;
20824;SDS011;10573;50.936;6.978;2023-12-29T03:58:06;5.90;;;1.77;;
20824;SDS011;10573;50.936;6.978;2023-12-29T04:00:32;6.77;;;1.30;;
20824;SDS011;10573;50.936;6.978;2023-12-29T04:02:57;5.93;;;1.30;;
20824;SDS011;10573;50.936;6.978;2023-12-29T04:05:23;7.83;;;1.50;;
20824;SDS011;10573;50.936;6.978;2023-12-29T04:07:48;5.30;;;1.20;;
20824;SDS011;10573;50.936;6.978;2023-12-29T04:10:13;3.80;;;1.20;;
20824;SDS011;10573;50.936;6.978;2023-12-29T04:12:39;4.60;;;1.60;;
20824;SDS011;10573;50.936;6.978;2023-12-29T04:15:04;6.10;;;1.50;;
20824;SDS011;10573;50.936;6.978;2023-12-29T04:17:30;5.15;;;1.38;;
20824;SDS011;10573;50.936;6.978;2023-12-29T04:19:56;5.10;;;1.30;;
20824;SDS011;10573;50.936;6.978;2023-12-29T04:22:21;7.20;;;1.48;;
20824;SDS011;10573;50.936;6.978;2023-12-29T04:24:47;6.03;;;1.50;;
20824;SDS011;10573;50.936;6.978;2023-12-29T04:27:13;5.57;;;1.43;;
20824;SDS011;10573;50.936;6.978;2023-12-29T04:29:39;10.90;;;1.55;;
20824;SDS011;10573;50.936;6.978;2023-12-29T04:32:05;12.00;;;1.73;;
20824;SDS011;10573;50.936;6.978;2023-12-29T04:34:30;7.47;;;1.60;;
20824;SDS011;10573;50.936;6.978;2023-12-29T04:36:56;6.40;;;1.77;;
20824;SDS011;10573;50.936;6.978;2023-12-29T04:39:21;3.97;;;1.48;;
20824;SDS011;10573;50.936;6.978;2023-12-29T04:41:46;8.97;;;1.93;;
20824;SDS011;10573;50.936;6.978;2023-12-29T04:44:12;8.40;;;1.67;;
20824;SDS011;10573;50.936;6.978;2023-12-29T04:46:37;8.10;;;1.70;;
20824;SDS011;10573;50.936;6.978;2023-12-29T04:49:02;6.72;;;1.58;;
20824;SDS011;10573;50.936;6.978;2023-12-29T04:51:28;5.30;;;1.40;;
20824;SDS011;10573;50.936;6.978;2023-12-29T04:53:53;5.80;;;1.50;;
20824;SDS011;10573;50.936;6.978;2023-12-29T04:56:19;6.83;;;1.60;;
20824;SDS011;10573;50.936;6.978;2023-12-29T04:58:44;5.05;;;1.35;;
20824;SDS011;10573;50.936;6.978;2023-12-29T05:01:09;5.53;;;1.60;;
20824;SDS011;10573;50.936;6.978;2023-12-29T05:03:35;6.53;;;1.58;;
20824;SDS011;10573;50.936;6.978;2023-12-29T05:06:00;7.40;;;1.50;;
20824;SDS011;10573;50.936;6.978;2023-12-29T05:08:25;5.57;;;1.48;;
20824;SDS011;10573;50.936;6.978;2023-12-29T05:10:51;4.20;;;1.37;;
20824;SDS011;10573;50.936;6.978;2023-12-29T05:13:16;6.70;;;1.33;;
20824;SDS011;10573;50.936;6.978;2023-12-29T05:15:41;5.67;;;1.30;;
20824;SDS011;10573;50.936;6.978;2023-12-29T05:18:07;6.60;;;1.40;;
20824;SDS011;10573;50.936;6.978;2023-12-29T05:20:32;8.00;;;1.50;;
20824;SDS011;10573;50.936;6.978;2023-12-29T05:22:58;5.83;;;1.10;;
20824;SDS011;10573;50.936;6.978;2023-12-29T05:25:24;5.80;;;1.47;;
20824;SDS011;10573;50.936;6.978;2023-12-29T05:27:49;4.73;;;1.43;;
20824;SDS011;10573;50.936;6.978;2023-12-29T05:30:15;5.03;;;1.30;;
20824;SDS011;10573;50.936;6.978;2023-12-29T05:32:41;6.97;;;1.75;;
20824;SDS011;10573;50.936;6.978;2023-12-29T05:35:06;6.57;;;1.50;;
20824;SDS011;10573;50.936;6.978;2023-12-29T05:37:32;6.15;;;1.30;;
20824;SDS011;10573;50.936;6.978;2023-12-29T05:39:57;7.32;;;1.42;;
20824;SDS011;10573;50.936;6.978;2023-12-29T05:42:23;5.47;;;1.30;;
20824;SDS011;10573;50.936;6.978;2023-12-29T05:44:49;6.55;;;1.35;;
20824;SDS011;10573;50.936;6.978;2023-12-29T05:47:18;5.15;;;1.08;;
20824;SDS011;10573;50.936;6.978;2023-12-29T05:49:43;6.60;;;1.48;;
20824;SDS011;10573;50.936;6.978;2023-12-29T05:52:09;6.87;;;1.47;;
20824;SDS011;10573;50.936;6.978;2023-12-29T05:54:34;8.83;;;1.50;;
20824;SDS011;10573;50.936;6.978;2023-12-29T05:57:00;5.70;;;1.50;;
20824;SDS011;10573;50.936;6.978;2023-12-29T05:59:25;6.63;;;1.07;;
20824;SDS011;10573;50.936;6.978;2023-12-29T06:01:51;7.15;;;1.35;;
20824;SDS011;10573;50.936;6.978;2023-12-29T06:04:16;6.60;;;1.40;;
20824;SDS011;10573;50.936;6.978;2023-12-29T06:06:42;8.50;;;1.20;;
20824;SDS011;10573;50.936;6.978;2023-12-29T06:09:11;5.47;;;1.05;;
20824;SDS011;10573;50.936;6.978;2023-12-29T06:11:36;5.05;;;1.17;;
20824;SDS011;10573;50.936;6.978;2023-12-29T06:14:03;7.72;;;1.50;;
20824;SDS011;10573;50.936;6.978;2023-12-29T06:16:28;4.40;;;1.20;;
20824;SDS011;10573;50.936;6.978;2023-12-29T06:18:55;6.40;;;1.10;;
20824;SDS011;10573;50.936;6.978;2023-12-29T06:21:20;6.37;;;1.30;;
20824;SDS011;10573;50.936;6.978;2023-12-29T06:23:46;6.30;;;1.60;;
20824;SDS011;10573;50.936;6.978;2023-12-29T06:26:18;5.00;;;1.20;;
20824;SDS011;10573;50.936;6.978;2023-12-29T06:28:44;4.97;;;1.40;;
20824;SDS011;10573;50.936;6.978;2023-12-29T06:31:13;5.88;;;0.93;;
20824;SDS011;10573;50.936;6.978;2023-12-29T06:33:42;5.20;;;1.10;;
20824;SDS011;10573;50.936;6.978;2023-12-29T06:36:08;5.85;;;1.30;;
20824;SDS011;10573;50.936;6.978;2023-12-29T06:38:34;5.60;;;1.25;;
20824;SDS011;10573;50.936;6.978;2023-12-29T06:41:03;5.23;;;1.30;;
20824;SDS011;10573;50.936;6.978;2023-12-29T06:43:29;7.73;;;1.37;;
20824;SDS011;10573;50.936;6.978;2023-12-29T06:45:55;6.03;;;1.17;;
20824;SDS011;10573;50.936;6.978;2023-12-29T06:48:20;6.33;;;1.30;;
20824;SDS011;10573;50.936;6.978;2023-12-29T06:50:46;6.67;;;1.20;;
20824;SDS011;10573;50.936;6.978;2023-12-29T06:53:11;5.77;;;1.23;;
20824;SDS011;10573;50.936;6.978;2023-12-29T06:55:37;6.40;;;1.20;;
20824;SDS011;10573;50.936;6.978;2023-12-29T06:58:02;5.78;;;1.30;;
20824;SDS011;10573;50.936;6.978;2023-12-29T07:00:29;5.15;;;1.20;;
20824;SDS011;10573;50.936;6.978;2023-12-29T07:02:54;5.70;;;1.13;;
20824;SDS011;10573;50.936;6.978;2023-12-29T07:05:20;4.23;;;1.10;;
20824;SDS011;10573;50.936;6.978;2023-12-29T07:07:45;7.78;;;1.50;;
20824;SDS011;10573;50.936;6.978;2023-12-29T07:10:14;4.83;;;1.07;;
20824;SDS011;10573;50.936;6.978;2023-12-29T07:12:42;4.78;;;1.13;;
20824;SDS011;10573;50.936;6.978;2023-12-29T07:15:08;4.18;;;1.15;;
20824;SDS011;10573;50.936;6.978;2023-12-29T07:17:34;3.65;;;1.02;;
20824;SDS011;10573;50.936;6.978;2023-12-29T07:19:59;5.73;;;1.20;;
20824;SDS011;10573;50.936;6.978;2023-12-29T07:22:25;4.75;;;1.10;;
20824;SDS011;10573;50.936;6.978;2023-12-29T07:24:50;5.10;;;1.10;;
20824;SDS011;10573;50.936;6.978;2023-12-29T07:27:16;3.90;;;1.10;;
20824;SDS011;10573;50.936;6.978;2023-12-29T07:29:41;3.90;;;0.90;;
20824;SDS011;10573;50.936;6.978;2023-12-29T07:32:07;3.03;;;0.83;;
20824;SDS011;10573;50.936;6.978;2023-12-29T07:34:32;4.03;;;1.07;;
20824;SDS011;10573;50.936;6.978;2023-12-29T07:36:58;2.78;;;0.85;;
20824;SDS011;10573;50.936;6.978;2023-12-29T07:39:24;5.20;;;0.83;;
20824;SDS011;10573;50.936;6.978;2023-12-29T07:41:50;3.90;;;0.90;;
20824;SDS011;10573;50.936;6.978;2023-12-29T07:44:16;4.93;;;1.00;;
20824;SDS011;10573;50.936;6.978;2023-12-29T07:46:42;2.72;;;1.00;;
20824;SDS011;10573;50.936;6.978;2023-12-29T07:49:09;3.97;;;1.20;;
20824;SDS011;10573;50.936;6.978;2023-12-29T07:51:38;3.65;;;0.90;;
20824;SDS011;10573;50.936;6.978;2023-12-29T07:54:08;2.88;;;0.95;;
20824;SDS011;10573;50.936;6.978;2023-12-29T07:56:33;3.75;;;1.00;;
20824;SDS011;10573;50.936;6.978;2023-12-29T07:58:59;5.40;;;0.90;;
20824;SDS011;10573;50.936;6.978;2023-12-29T08:01:25;4.60;;;1.00;;
20824;SDS011;10573;50.936;6.978;2023-12-29T08:03:52;6.23;;;0.90;;
20824;SDS011;10573;50.936;6.978;2023-12-29T08:06:17;4.07;;;0.97;;
20824;SDS011;10573;50.936;6.978;2023-12-29T08:08:42;3.78;;;1.05;;
20824;SDS011;10573;50.936;6.978;2023-12-29T08:11:14;4.70;;;1.03;;
20824;SDS011;10573;50.936;6.978;2023-12-29T08:13:41;3.13;;;1.20;;
20824;SDS011;10573;50.936;6.978;2023-12-29T08:16:08;3.83;;;0.87;;
20824;SDS011;10573;50.936;6.978;2023-12-29T08:18:33;4.63;;;1.00;;
20824;SDS011;10573;50.936;6.978;2023-12-29T08:20:59;5.13;;;0.90;;
20824;SDS011;10573;50.936;6.978;2023-12-29T08:23:25;4.45;;;1.20;;
20824;SDS011;10573;50.936;6.978;2023-12-29T08:25:51;5.80;;;1.52;;
20824;SDS011;10573;50.936;6.978;2023-12-29T08:28:17;3.27;;;1.20;;
20824;SDS011;10573;50.936;6.978;2023-12-29T08:30:42;5.23;;;1.30;;
20824;SDS011;10573;50.936;6.978;2023-12-29T08:33:10;4.15;;;1.15;;
20824;SDS011;10573;50.936;6.978;2023-12-29T08:35:37;3.33;;;1.30;;
20824;SDS011;10573;50.936;6.978;2023-12-29T08:38:03;6.37;;;1.30;;
20824;SDS011;10573;50.936;6.978;2023-12-29T08:40:29;4.93;;;1.30;;
20824;SDS011;10573;50.936;6.978;2023-12-29T08:42:54;6.13;;;1.08;;
20824;SDS011;10573;50.936;6.978;2023-12-29T08:45:20;6.10;;;1.47;;
20824;SDS011;10573;50.936;6.978;2023-12-29T08:47:45;4.37;;;1.20;;
20824;SDS011;10573;50.936;6.978;2023-12-29T08:50:10;5.50;;;1.30;;
20824;SDS011;10573;50.936;6.978;2023-12-29T08:52:36;3.43;;;1.10;;
20824;SDS011;10573;50.936;6.978;2023-12-29T08:55:01;5.38;;;1.40;;
20824;SDS011;10573;50.936;6.978;2023-12-29T08:57:27;4.53;;;1.45;;
20824;SDS011;10573;50.936;6.978;2023-12-29T08:59:52;6.13;;;1.43;;
20824;SDS011;10573;50.936;6.978;2023-12-29T09:02:18;7.50;;;1.80;;
20824;SDS011;10573;50.936;6.978;2023-12-29T09:04:43;5.00;;;1.20;;
20824;SDS011;10573;50.936;6.978;2023-12-29T09:07:09;4.80;;;1.27;;
20824;SDS011;10573;50.936;6.978;2023-12-29T09:09:34;5.90;;;1.30;;
20824;SDS011;10573;50.936;6.978;2023-12-29T09:11:59;5.67;;;1.47;;
20824;SDS011;10573;50.936;6.978;2023-12-29T09:14:25;5.70;;;1.20;;
20824;SDS011;10573;50.936;6.978;2023-12-29T09:16:50;5.27;;;1.37;;
20824;SDS011;10573;50.936;6.978;2023-12-29T09:19:16;5.90;;;1.67;;
20824;SDS011;10573;50.936;6.978;2023-12-29T09:21:41;4.93;;;1.50;;
20824;SDS011;10573;50.936;6.978;2023-12-29T09:24:06;5.97;;;1.30;;
20824;SDS011;10573;50.936;6.978;2023-12-29T09:26:32;4.78;;;1.27;;
20824;SDS011;10573;50.936;6.978;2023-12-29T09:28:58;5.30;;;1.40;;
20824;SDS011;10573;50.936;6.978;2023-12-29T09:31:24;6.78;;;1.50;;
20824;SDS011;10573;50.936;6.978;2023-12-29T09:33:50;4.18;;;1.27;;
20824;SDS011;10573;50.936;6.978;2023-12-29T09:36:15;3.58;;;1.50;;
20824;SDS011;10573;50.936;6.978;2023-12-29T09:38:41;6.37;;;1.40;;
20824;SDS011;10573;50.936;6.978;2023-12-29T09:41:11;5.60;;;1.63;;
20824;SDS011;10573;50.936;6.978;2023-12-29T09:43:40;6.80;;;1.70;;
20824;SDS011;10573;50.936;6.978;2023-12-29T09:46:05;7.70;;;2.10;;
20824;SDS011;10573;50.936;6.978;2023-12-29T09:48:33;4.82;;;1.23;;
20824;SDS011;10573;50.936;6.978;2023-12-29T09:51:00;5.33;;;1.57;;
20824;SDS011;10573;50.936;6.978;2023-12-29T09:53:26;6.83;;;1.70;;
20824;SDS011;10573;50.936;6.978;2023-12-29T09:55:53;5.00;;;1.60;;
20824;SDS011;10573;50.936;6.978;2023-12-29T09:58:20;7.65;;;1.38;;
20824;SDS011;10573;50.936;6.978;2023-12-29T10:00:47;3.72;;;1.35;;
20824;SDS011;10573;50.936;6.978;2023-12-29T10:03:14;4.03;;;1.27;;
20824;SDS011;10573;50.936;6.978;2023-12-29T10:05:39;4.65;;;1.10;;
20824;SDS011;10573;50.936;6.978;2023-12-29T10:08:05;2.90;;;1.07;;
20824;SDS011;10573;50.936;6.978;2023-12-29T10:10:35;3.95;;;1.00;;
20824;SDS011;10573;50.936;6.978;2023-12-29T10:13:03;3.65;;;0.90;;
20824;SDS011;10573;50.936;6.978;2023-12-29T10:18:41;3.17;;;0.88;;
20824;SDS011;10573;50.936;6.978;2023-12-29T10:21:31;3.83;;;0.80;;
20824;SDS011;10573;50.936;6.978;2023-12-29T10:26:33;3.50;;;0.93;;
20824;SDS011;10573;50.936;6.978;2023-12-29T10:29:00;1.60;;;0.70;;
20824;SDS011;10573;50.936;6.978;2023-12-29T10:31:25;2.33;;;0.83;;
20824;SDS011;10573;50.936;6.978;2023-12-29T10:33:51;2.58;;;0.80;;
20824;SDS011;10573;50.936;6.978;2023-12-29T10:36:17;2.15;;;0.70;;
20824;SDS011;10573;50.936;6.978;2023-12-29T10:38:42;2.85;;;0.77;;
20824;SDS011;10573;50.936;6.978;2023-12-29T10:41:12;2.03;;;0.75;;
20824;SDS011;10573;50.936;6.978;2023-12-29T10:43:47;3.08;;;0.70;;
20824;SDS011;10573;50.936;6.978;2023-12-29T10:46:16;3.03;;;0.90;;
20824;SDS011;10573;50.936;6.978;2023-12-29T10:48:43;1.88;;;0.68;;
20824;SDS011;10573;50.936;6.978;2023-12-29T10:51:08;3.40;;;0.93;;
20824;SDS011;10573;50.936;6.978;2023-12-29T10:53:35;2.37;;;0.80;;
20824;SDS011;10573;50.936;6.978;2023-12-29T10:56:01;3.63;;;1.00;;
20824;SDS011;10573;50.936;6.978;2023-12-29T10:58:27;1.30;;;0.80;;
20824;SDS011;10573;50.936;6.978;2023-12-29T11:00:57;2.05;;;0.77;;
20824;SDS011;10573;50.936;6.978;2023-12-29T11:03:25;3.55;;;0.77;;
20824;SDS011;10573;50.936;6.978;2023-12-29T11:05:51;3.47;;;0.97;;
20824;SDS011;10573;50.936;6.978;2023-12-29T11:08:25;4.40;;;1.17;;
20824;SDS011;10573;50.936;6.978;2023-12-29T11:10:50;1.80;;;0.80;;
20824;SDS011;10573;50.936;6.978;2023-12-29T11:13:16;2.67;;;0.80;;
20824;SDS011;10573;50.936;6.978;2023-12-29T11:15:45;1.83;;;0.70;;
20824;SDS011;10573;50.936;6.978;2023-12-29T11:18:11;2.05;;;0.60;;
20824;SDS011;10573;50.936;6.978;2023-12-29T11:20:39;1.63;;;0.60;;
20824;SDS011;10573;50.936;6.978;2023-12-29T11:23:06;1.95;;;0.63;;
20824;SDS011;10573;50.936;6.978;2023-12-29T11:25:33;3.45;;;1.00;;
20824;SDS011;10573;50.936;6.978;2023-12-29T11:27:59;2.78;;;0.60;;
20824;SDS011;10573;50.936;6.978;2023-12-29T11:30:25;1.98;;;0.70;;
20824;SDS011;10573;50.936;6.978;2023-12-29T11:32:53;1.95;;;0.50;;
20824;SDS011;10573;50.936;6.978;2023-12-29T11:35:26;1.30;;;0.70;;
20824;SDS011;10573;50.936;6.978;2023-12-29T11:38:33;1.90;;;0.50;;
20824;SDS011;10573;50.936;6.978;2023-12-29T11:43:41;2.25;;;0.77;;
20824;SDS011;10573;50.936;6.978;2023-12-29T11:46:07;3.90;;;0.80;;
20824;SDS011;10573;50.936;6.978;2023-12-29T11:49:00;1.48;;;0.57;;
20824;SDS011;10573;50.936;6.978;2023-12-29T11:54:06;1.53;;;0.70;;
20824;SDS011;10573;50.936;6.978;2023-12-29T11:56:38;1.23;;;0.60;;
20824;SDS011;10573;50.936;6.978;2023-12-29T12:01:53;1.35;;;0.70;;
20824;SDS011;10573;50.936;6.978;2023-12-29T12:09:46;1.75;;;0.60;;
20824;SDS011;10573;50.936;6.978;2023-12-29T12:12:14;2.08;;;0.50;;
20824;SDS011;10573;50.936;6.978;2023-12-29T12:14:59;1.90;;;0.63;;
20824;SDS011;10573;50.936;6.978;2023-12-29T12:17:30;1.15;;;0.47;;
20824;SDS011;10573;50.936;6.978;2023-12-29T12:20:06;2.60;;;0.70;;
20824;SDS011;10573;50.936;6.978;2023-12-29T12:22:36;1.27;;;0.50;;
20824;SDS011;10573;50.936;6.978;2023-12-29T12:25:02;1.90;;;0.40;;
20824;SDS011;10573;50.936;6.978;2023-12-29T12:27:28;1.75;;;0.45;;
20824;SDS011;10573;50.936;6.978;2023-12-29T12:29:57;3.00;;;0.60;;
20824;SDS011;10573;50.936;6.978;2023-12-29T12:32:26;1.50;;;0.55;;
20824;SDS011;10573;50.936;6.978;2023-12-29T12:34:53;0.68;;;0.30;;
20824;SDS011;10573;50.936;6.978;2023-12-29T12:37:28;1.10;;;0.30;;
20824;SDS011;10573;50.936;6.978;2023-12-29T12:39:54;1.20;;;0.32;;
20824;SDS011;10573;50.936;6.978;2023-12-29T12:42:20;2.80;;;0.40;;
20824;SDS011;10573;50.936;6.978;2023-12-29T12:44:53;2.00;;;0.50;;
20824;SDS011;10573;50.936;6.978;2023-12-29T12:47:25;1.07;;;0.40;;
20824;SDS011;10573;50.936;6.978;2023-12-29T12:49:57;1.35;;;0.30;;
20824;SDS011;10573;50.936;6.978;2023-12-29T12:52:24;0.60;;;0.30;;
20824;SDS011;10573;50.936;6.978;2023-12-29T12:54:50;0.63;;;0.30;;
20824;SDS011;10573;50.936;6.978;2023-12-29T12:57:20;0.38;;;0.20;;
20824;SDS011;10573;50.936;6.978;2023-12-29T12:59:47;1.50;;;0.50;;
20824;SDS011;10573;50.936;6.978;2023-12-29T13:02:14;0.90;;;0.40;;
20824;SDS011;10573;50.936;6.978;2023-12-29T13:04:41;1.87;;;0.57;;
20824;SDS011;10573;50.936;6.978;2023-12-29T13:07:07;2.92;;;0.40;;
20824;SDS011;10573;50.936;6.978;2023-12-29T13:09:35;0.85;;;0.40;;
20824;SDS011;10573;50.936;6.978;2023-12-29T13:12:10;0.70;;;0.40;;
20824;SDS011;10573;50.936;6.978;2023-12-29T13:14:37;1.48;;;0.40;;
20824;SDS011;10573;50.936;6.978;2023-12-29T13:17:06;1.48;;;0.30;;
20824;SDS011;10573;50.936;6.978;2023-12-29T13:19:36;1.15;;;0.50;;
20824;SDS011;10573;50.936;6.978;2023-12-29T13:22:05;1.48;;;0.35;;
20824;SDS011;10573;50.936;6.978;2023-12-29T13:24:32;0.90;;;0.40;;
20824;SDS011;10573;50.936;6.978;2023-12-29T13:27:01;1.02;;;0.40;;
20824;SDS011;10573;50.936;6.978;2023-12-29T13:29:29;1.23;;;0.40;;
20824;SDS011;10573;50.936;6.978;2023-12-29T13:31:58;1.63;;;0.40;;
20824;SDS011;10573;50.936;6.978;2023-12-29T13:34:29;2.10;;;0.38;;
20824;SDS011;10573;50.936;6.978;2023-12-29T13:39:55;1.70;;;0.35;;
20824;SDS011;10573;50.936;6.978;2023-12-29T13:42:29;1.25;;;0.45;;
20824;SDS011;10573;50.936;6.978;2023-12-29T13:44:57;2.10;;;0.60;;
20824;SDS011;10573;50.936;6.978;2023-12-29T13:47:25;1.20;;;0.40;;
20824;SDS011;10573;50.936;6.978;2023-12-29T13:49:51;0.57;;;0.30;;
20824;SDS011;10573;50.936;6.978;2023-12-29T13:52:17;1.25;;;0.40;;
20824;SDS011;10573;50.936;6.978;2023-12-29T13:54:44;1.65;;;0.55;;
20824;SDS011;10573;50.936;6.978;2023-12-29T13:57:09;1.40;;;0.50;;
20824;SDS011;10573;50.936;6.978;2023-12-29T13:59:35;1.60;;;0.30;;
20824;SDS011;10573;50.936;6.978;2023-12-29T14:02:03;1.80;;;0.40;;
20824;SDS011;10573;50.936;6.978;2023-12-29T14:04:44;1.50;;;0.47;;
20824;SDS011;10573;50.936;6.978;2023-12-29T14:07:10;1.55;;;0.47;;
20824;SDS011;10573;50.936;6.978;2023-12-29T14:09:36;0.87;;;0.47;;
20824;SDS011;10573;50.936;6.978;2023-12-29T14:12:01;3.00;;;0.57;;
20824;SDS011;10573;50.936;6.978;2023-12-29T14:14:27;1.80;;;0.50;;
20824;SDS011;10573;50.936;6.978;2023-12-29T14:16:53;2.37;;;0.50;;
20824;SDS011;10573;50.936;6.978;2023-12-29T14:19:18;0.80;;;0.50;;
20824;SDS011;10573;50.936;6.978;2023-12-29T14:21:44;1.53;;;0.63;;
20824;SDS011;10573;50.936;6.978;2023-12-29T14:24:12;3.40;;;0.60;;
20824;SDS011;10573;50.936;6.978;2023-12-29T14:26:40;2.47;;;0.55;;
20824;SDS011;10573;50.936;6.978;2023-12-29T14:29:10;2.55;;;0.68;;
20824;SDS011;10573;50.936;6.978;2023-12-29T14:31:38;1.77;;;0.75;;
20824;SDS011;10573;50.936;6.978;2023-12-29T14:34:05;2.05;;;0.60;;
20824;SDS011;10573;50.936;6.978;2023-12-29T14:36:34;1.93;;;0.60;;
20824;SDS011;10573;50.936;6.978;2023-12-29T14:39:00;1.55;;;0.70;;
20824;SDS011;10573;50.936;6.978;2023-12-29T14:41:27;1.45;;;0.63;;
20824;SDS011;10573;50.936;6.978;2023-12-29T14:43:53;1.73;;;0.40;;
20824;SDS011;10573;50.936;6.978;2023-12-29T14:46:18;0.67;;;0.50;;
20824;SDS011;10573;50.936;6.978;2023-12-29T14:48:44;3.60;;;0.70;;
20824;SDS011;10573;50.936;6.978;2023-12-29T14:51:09;1.80;;;0.70;;
20824;SDS011;10573;50.936;6.978;2023-12-29T14:53:35;2.40;;;0.80;;
20824;SDS011;10573;50.936;6.978;2023-12-29T14:56:01;2.17;;;0.80;;
20824;SDS011;10573;50.936;6.978;2023-12-29T14:58:27;2.23;;;0.80;;
20824;SDS011;10573;50.936;6.978;2023-12-29T15:00:52;3.37;;;0.87;;
20824;SDS011;10573;50.936;6.978;2023-12-29T15:03:18;2.87;;;0.80;;
20824;SDS011;10573;50.936;6.978;2023-12-29T15:05:44;1.83;;;0.82;;
20824;SDS011;10573;50.936;6.978;2023-12-29T15:08:11;2.30;;;0.80;;
20824;SDS011;10573;50.936;6.978;2023-12-29T15:10:37;2.70;;;0.85;;